createdAt,value
2022-07-25T00:00:24.508Z,22.98
2022-07-25T00:03:28.465Z,22.94
2022-07-25T00:06:32.155Z,22.85
2022-07-25T00:09:35.602Z,22.77
2022-07-25T00:12:38.715Z,22.69
2022-07-25T00:15:42.229Z,22.62
2022-07-25T00:18:44.991Z,22.65
2022-07-25T00:21:48.428Z,22.60
2022-07-25T00:24:51.190Z,22.62
2022-07-25T00:27:54.375Z,22.69
2022-07-25T00:30:57.133Z,22.59
2022-07-25T00:34:00.545Z,22.53
2022-07-25T00:37:03.875Z,22.51
2022-07-25T00:40:08.041Z,22.52
2022-07-25T00:43:11.321Z,22.55
2022-07-25T00:46:18.882Z,22.48
2022-07-25T00:49:22.233Z,22.43
2022-07-25T00:52:25.978Z,22.40
2022-07-25T00:55:30.732Z,22.29
2022-07-25T00:58:34.423Z,22.31
2022-07-25T01:01:39.032Z,22.22
2022-07-25T01:04:44.614Z,22.25
2022-07-25T01:07:48.510Z,22.38
2022-07-25T01:10:51.768Z,22.29
2022-07-25T01:13:54.959Z,22.23
2022-07-25T01:16:58.565Z,22.23
2022-07-25T01:20:01.679Z,22.26
2022-07-25T01:23:05.477Z,22.25
2022-07-25T01:26:08.460Z,22.21
2022-07-25T01:29:11.948Z,22.14
2022-07-25T01:32:14.729Z,22.10
2022-07-25T01:35:17.893Z,22.12
2022-07-25T01:38:21.026Z,22.10
2022-07-25T01:41:24.383Z,22.12
2022-07-25T01:44:27.968Z,22.03
2022-07-25T01:47:31.890Z,22.00
2022-07-25T01:50:34.962Z,21.87
2022-07-25T01:53:38.295Z,21.85
2022-07-25T01:56:48.261Z,21.85
2022-07-25T01:59:51.925Z,21.65
2022-07-25T02:03:14.940Z,21.81
2022-07-25T02:06:19.394Z,21.64
2022-07-25T02:09:22.174Z,21.69
2022-07-25T02:12:26.043Z,21.66
2022-07-25T02:15:28.955Z,21.68
2022-07-25T02:18:31.916Z,21.59
2022-07-25T02:21:35.196Z,21.55
2022-07-25T02:24:38.709Z,21.58
2022-07-25T02:27:41.512Z,21.53
2022-07-25T02:30:45.074Z,21.50
2022-07-25T02:33:48.265Z,21.48
2022-07-25T02:36:51.862Z,21.26
2022-07-25T02:39:55.005Z,21.24
2022-07-25T02:42:58.244Z,21.15
2022-07-25T02:46:01.299Z,21.11
2022-07-25T02:49:05.227Z,21.01
2022-07-25T02:52:08.106Z,20.92
2022-07-25T02:55:12.126Z,20.85
2022-07-25T02:58:15.637Z,20.86
2022-07-25T03:01:19.252Z,20.69
2022-07-25T03:04:22.745Z,20.53
2022-07-25T03:07:26.037Z,20.67
2022-07-25T03:10:29.145Z,20.60
2022-07-25T03:13:33.457Z,20.59
2022-07-25T03:16:36.976Z,20.60
2022-07-25T03:19:40.958Z,20.53
2022-07-25T03:22:45.030Z,20.51
2022-07-25T03:25:48.402Z,20.45
2022-07-25T03:28:51.631Z,20.34
2022-07-25T03:31:56.358Z,20.41
2022-07-25T03:34:59.274Z,20.42
2022-07-25T03:38:03.394Z,20.22
2022-07-25T03:41:06.598Z,20.43
2022-07-25T03:44:10.494Z,20.47
2022-07-25T03:47:20.536Z,20.49
2022-07-25T03:50:23.998Z,20.50
2022-07-25T03:53:27.342Z,20.52
2022-07-25T03:56:43.804Z,20.59
2022-07-25T03:59:46.924Z,20.62
2022-07-25T04:02:50.552Z,20.69
2022-07-25T04:05:53.836Z,20.73
2022-07-25T04:08:56.884Z,20.78
2022-07-25T04:11:59.987Z,20.83
2022-07-25T04:15:03.110Z,20.94
2022-07-25T04:18:06.318Z,21.00
2022-07-25T04:21:11.503Z,21.07
2022-07-25T04:24:14.609Z,21.14
2022-07-25T04:27:17.713Z,21.19
2022-07-25T04:30:23.804Z,21.24
2022-07-25T04:33:27.990Z,21.29
2022-07-25T04:36:31.118Z,21.36
2022-07-25T04:39:34.179Z,21.41
2022-07-25T04:42:37.018Z,21.51
2022-07-25T04:45:40.093Z,21.73
2022-07-25T04:48:42.965Z,22.00
2022-07-25T04:51:49.459Z,21.93
2022-07-25T04:54:52.738Z,21.92
2022-07-25T04:57:55.715Z,22.04
2022-07-25T05:00:59.047Z,22.05
2022-07-25T05:04:02.675Z,22.09
2022-07-25T05:07:06.174Z,22.13
2022-07-25T05:10:10.214Z,22.19
2022-07-25T05:13:13.263Z,22.29
2022-07-25T05:16:16.814Z,22.33
2022-07-25T05:19:20.327Z,22.32
2022-07-25T05:22:28.252Z,22.42
2022-07-25T05:25:32.707Z,22.42
2022-07-25T05:28:35.937Z,22.47
2022-07-25T05:31:39.206Z,22.66
2022-07-25T05:34:42.730Z,22.75
2022-07-25T05:37:45.990Z,22.78
2022-07-25T05:40:52.187Z,22.88
2022-07-25T05:43:55.494Z,22.84
2022-07-25T05:46:59.255Z,22.94
2022-07-25T05:50:02.534Z,23.09
2022-07-25T05:53:05.253Z,23.13
2022-07-25T05:56:09.983Z,23.12
2022-07-25T05:59:13.400Z,23.33
2022-07-25T06:02:16.575Z,23.42
2022-07-25T06:05:19.971Z,23.57
2022-07-25T06:08:23.216Z,23.79
2022-07-25T06:11:30.744Z,23.88
2022-07-25T06:14:33.871Z,24.01
2022-07-25T06:17:37.294Z,24.13
2022-07-25T06:20:40.541Z,24.16
2022-07-25T06:23:44.016Z,24.33
2022-07-25T06:26:46.970Z,24.41
2022-07-25T06:29:50.511Z,24.49
2022-07-25T06:32:53.517Z,24.69
2022-07-25T06:35:57.443Z,24.79
2022-07-25T06:39:01.002Z,24.81
2022-07-25T06:42:04.612Z,24.82
2022-07-25T06:45:11.068Z,24.86
2022-07-25T06:48:15.409Z,24.82
2022-07-25T06:51:18.758Z,24.90
2022-07-25T06:54:22.245Z,24.94
2022-07-25T06:57:25.618Z,25.21
2022-07-25T07:00:29.307Z,25.05
2022-07-25T07:03:32.928Z,25.35
2022-07-25T07:06:37.766Z,25.34
2022-07-25T07:09:40.684Z,25.54
2022-07-25T07:12:44.498Z,25.64
2022-07-25T07:15:50.404Z,25.60
2022-07-25T07:18:54.091Z,25.98
2022-07-25T07:21:57.114Z,26.31
2022-07-25T07:25:00.676Z,26.42
2022-07-25T07:28:03.883Z,26.69
2022-07-25T07:31:16.139Z,27.01
2022-07-25T07:34:20.567Z,26.92
2022-07-25T07:37:23.889Z,27.12
2022-07-25T07:40:27.298Z,27.08
2022-07-25T07:43:31.946Z,27.11
2022-07-25T07:46:35.352Z,27.49
2022-07-25T07:49:38.729Z,27.58
2022-07-25T07:52:41.987Z,27.82
2022-07-25T07:55:45.633Z,28.24
2022-07-25T07:58:49.189Z,28.16
2022-07-25T08:01:52.825Z,28.23
2022-07-25T08:04:56.600Z,28.32
2022-07-25T08:08:00.495Z,28.57
2022-07-25T08:11:05.203Z,28.70
2022-07-25T08:14:09.087Z,28.90
2022-07-25T08:17:13.496Z,29.13
2022-07-25T08:20:36.932Z,29.42
2022-07-25T08:23:41.582Z,29.14
2022-07-25T08:26:45.248Z,29.61
2022-07-25T08:29:49.472Z,29.76
2022-07-25T08:32:57.278Z,29.77
2022-07-25T08:36:00.869Z,29.75
2022-07-25T08:39:03.843Z,29.92
2022-07-25T08:42:10.933Z,30.44
2022-07-25T08:45:20.000Z,30.63
2022-07-25T08:48:26.605Z,30.19
2022-07-25T08:51:29.670Z,30.73
2022-07-25T08:54:33.379Z,30.91
2022-07-25T08:57:43.984Z,31.20
2022-07-25T09:00:47.227Z,31.43
2022-07-25T09:03:50.430Z,31.73
2022-07-25T09:06:54.170Z,32.07
2022-07-25T09:09:56.866Z,32.44
2022-07-25T09:13:05.301Z,32.52
2022-07-25T09:16:11.247Z,33.08
2022-07-25T09:19:19.914Z,32.73
2022-07-25T09:22:23.377Z,32.72
2022-07-25T09:25:31.272Z,33.10
2022-07-25T09:28:42.495Z,33.50
2022-07-25T09:31:46.203Z,33.54
2022-07-25T09:34:50.451Z,33.60
2022-07-25T09:37:53.419Z,33.48
2022-07-25T09:40:57.263Z,33.26
2022-07-25T09:44:00.672Z,33.37
2022-07-25T09:47:16.842Z,33.64
2022-07-25T09:50:21.885Z,33.41
2022-07-25T09:53:25.148Z,34.03
2022-07-25T09:56:28.273Z,34.41
2022-07-25T09:59:31.060Z,34.62
2022-07-25T10:03:15.038Z,35.04
2022-07-25T10:06:36.751Z,34.90
2022-07-25T10:09:51.098Z,35.20
2022-07-25T10:13:11.265Z,35.09
2022-07-25T10:16:27.609Z,35.36
2022-07-25T10:19:40.252Z,35.96
2022-07-25T10:22:57.610Z,35.49
2022-07-25T10:26:16.248Z,35.75
2022-07-25T10:29:19.069Z,35.77
2022-07-25T10:32:26.808Z,36.10
2022-07-25T10:35:29.674Z,35.64
2022-07-25T10:38:33.394Z,35.61
2022-07-25T10:41:40.477Z,35.95
2022-07-25T10:44:49.143Z,36.03
2022-07-25T10:47:54.693Z,36.73
2022-07-25T10:51:06.433Z,36.88
2022-07-25T10:54:16.449Z,37.27
2022-07-25T10:57:19.701Z,37.40
2022-07-25T11:00:22.810Z,37.88
2022-07-25T11:03:26.964Z,37.63
2022-07-25T11:06:41.295Z,37.75
2022-07-25T11:09:45.114Z,37.65
2022-07-25T11:12:48.366Z,37.41
2022-07-25T11:15:51.784Z,37.63
2022-07-25T11:18:55.192Z,37.65
2022-07-25T11:22:01.173Z,37.70
2022-07-25T11:25:11.537Z,37.85
2022-07-25T11:28:14.992Z,37.75
2022-07-25T11:31:19.057Z,37.83
2022-07-25T11:34:24.814Z,38.14
2022-07-25T11:37:27.714Z,37.99
2022-07-25T11:40:32.880Z,37.72
2022-07-25T11:43:35.956Z,37.40
2022-07-25T11:46:44.309Z,37.80
2022-07-25T11:49:48.218Z,37.79
2022-07-25T11:52:59.812Z,37.40
2022-07-25T11:56:39.558Z,37.77
2022-07-25T11:59:42.848Z,37.95
2022-07-25T12:02:46.653Z,38.44
2022-07-25T12:05:50.577Z,38.24
2022-07-25T12:08:53.237Z,38.27
2022-07-25T12:12:03.400Z,38.64
2022-07-25T12:15:06.702Z,38.63
2022-07-25T12:18:12.666Z,38.45
2022-07-25T12:21:15.468Z,38.75
2022-07-25T12:24:18.533Z,38.82
2022-07-25T12:27:21.185Z,38.56
2022-07-25T12:30:26.367Z,38.95
2022-07-25T12:33:29.332Z,38.95
2022-07-25T12:36:34.630Z,38.48
2022-07-25T12:39:37.606Z,38.32
2022-07-25T12:42:40.830Z,37.65
2022-07-25T12:45:43.970Z,38.49
2022-07-25T12:48:47.860Z,38.57
2022-07-25T12:51:56.106Z,38.86
2022-07-25T12:55:02.240Z,38.20
2022-07-25T12:58:04.980Z,38.24
2022-07-25T13:01:08.589Z,38.33
2022-07-25T13:04:11.749Z,38.37
2022-07-25T13:07:16.699Z,37.91
2022-07-25T13:10:21.787Z,37.47
2022-07-25T13:13:25.333Z,37.01
2022-07-25T13:16:28.631Z,36.66
2022-07-25T13:19:32.740Z,37.10
2022-07-25T13:22:35.405Z,37.60
2022-07-25T13:25:38.837Z,36.75
2022-07-25T13:28:42.621Z,37.16
2022-07-25T13:31:47.647Z,37.50
2022-07-25T13:34:51.954Z,37.33
2022-07-25T13:37:55.501Z,37.33
2022-07-25T13:40:59.106Z,37.09
2022-07-25T13:44:02.378Z,36.86
2022-07-25T13:47:05.583Z,36.97
2022-07-25T13:50:09.455Z,37.04
2022-07-25T13:53:12.843Z,37.26
2022-07-25T13:56:16.475Z,37.36
2022-07-25T13:59:21.765Z,36.69
2022-07-25T14:02:25.258Z,37.07
2022-07-25T14:05:28.869Z,36.90
2022-07-25T14:08:31.969Z,36.89
2022-07-25T14:11:34.998Z,36.69
2022-07-25T14:14:37.811Z,36.14
2022-07-25T14:17:41.199Z,35.88
2022-07-25T14:20:44.235Z,36.13
2022-07-25T14:23:47.737Z,35.81
2022-07-25T14:26:50.541Z,36.03
2022-07-25T14:29:54.497Z,36.16
2022-07-25T14:32:58.824Z,36.18
2022-07-25T14:36:02.811Z,36.51
2022-07-25T14:39:05.821Z,36.45
2022-07-25T14:42:11.382Z,36.19
2022-07-25T14:45:14.890Z,36.03
2022-07-25T14:48:18.525Z,35.75
2022-07-25T14:51:21.466Z,35.39
2022-07-25T14:54:28.307Z,35.38
2022-07-25T14:57:31.062Z,35.25
2022-07-25T15:00:34.574Z,35.13
2022-07-25T15:03:37.576Z,35.28
2022-07-25T15:06:41.890Z,35.04
2022-07-25T15:09:44.740Z,35.36
2022-07-25T15:12:54.307Z,35.14
2022-07-25T15:16:05.563Z,35.28
2022-07-25T15:19:17.045Z,34.91
2022-07-25T15:22:30.047Z,34.69
2022-07-25T15:28:57.343Z,34.50
2022-07-25T15:32:03.628Z,34.24
2022-07-25T15:35:06.974Z,34.21
2022-07-25T15:38:10.190Z,34.36
2022-07-25T15:41:13.462Z,34.09
2022-07-25T15:44:16.817Z,34.17
2022-07-25T15:47:19.724Z,34.19
2022-07-25T15:50:23.082Z,34.09
2022-07-25T15:53:26.352Z,33.95
2022-07-25T15:56:29.292Z,33.61
2022-07-25T15:59:32.178Z,33.88
2022-07-25T16:02:35.934Z,33.89
2022-07-25T16:05:39.710Z,33.63
2022-07-25T16:08:45.216Z,33.53
2022-07-25T16:11:59.876Z,33.40
2022-07-25T16:15:03.049Z,33.08
2022-07-25T16:18:07.204Z,33.18
2022-07-25T16:21:09.962Z,33.12
2022-07-25T16:24:12.925Z,33.11
2022-07-25T16:27:15.869Z,33.06
2022-07-25T16:30:20.210Z,32.90
2022-07-25T16:33:22.910Z,32.53
2022-07-25T16:36:27.147Z,32.64
2022-07-25T16:39:30.287Z,32.75
2022-07-25T16:42:33.314Z,32.69
2022-07-25T16:45:36.758Z,32.50
2022-07-25T16:48:40.372Z,32.48
2022-07-25T16:51:44.302Z,32.50
2022-07-25T16:54:49.558Z,32.29
2022-07-25T16:57:52.332Z,32.05
2022-07-25T17:00:56.545Z,32.14
2022-07-25T17:03:59.816Z,32.14
2022-07-25T17:07:03.249Z,32.10
2022-07-25T17:10:06.768Z,31.99
2022-07-25T17:13:10.340Z,31.86
2022-07-25T17:16:13.333Z,31.79
2022-07-25T17:19:16.819Z,31.77
2022-07-25T17:22:20.406Z,31.77
2022-07-25T17:25:23.397Z,31.73
2022-07-25T17:28:26.308Z,31.69
2022-07-25T17:31:30.001Z,31.60
2022-07-25T17:34:33.641Z,30.70
2022-07-25T17:37:36.986Z,31.41
2022-07-25T17:40:39.963Z,31.38
2022-07-25T17:43:43.466Z,31.36
2022-07-25T17:46:46.404Z,31.22
2022-07-25T17:49:49.771Z,31.11
2022-07-25T17:52:53.541Z,30.82
2022-07-25T17:55:57.730Z,30.88
2022-07-25T17:59:00.431Z,30.73
2022-07-25T18:02:03.634Z,30.71
2022-07-25T18:05:07.161Z,30.53
2022-07-25T18:08:10.524Z,30.29
2022-07-25T18:11:14.566Z,30.09
2022-07-25T18:14:17.171Z,29.92
2022-07-25T18:17:21.660Z,29.83
2022-07-25T18:20:24.502Z,29.63
2022-07-25T18:23:29.198Z,29.60
2022-07-25T18:26:32.363Z,29.52
2022-07-25T18:29:38.649Z,29.54
2022-07-25T18:32:41.570Z,29.41
2022-07-25T18:35:44.696Z,29.35
2022-07-25T18:38:48.245Z,29.25
2022-07-25T18:41:51.864Z,29.24
2022-07-25T18:44:54.737Z,29.10
2022-07-25T18:48:01.420Z,29.14
2022-07-25T18:51:04.571Z,29.10
2022-07-25T18:54:08.088Z,28.97
2022-07-25T18:57:11.292Z,28.94
2022-07-25T19:00:14.656Z,28.88
2022-07-25T19:03:17.961Z,28.83
2022-07-25T19:06:21.350Z,28.83
2022-07-25T19:09:25.933Z,28.83
2022-07-25T19:12:29.228Z,28.73
2022-07-25T19:15:32.847Z,28.72
2022-07-25T19:18:36.359Z,28.66
2022-07-25T19:21:39.119Z,28.54
2022-07-25T19:24:42.643Z,28.51
2022-07-25T19:27:45.731Z,28.44
2022-07-25T19:30:49.096Z,28.31
2022-07-25T19:33:52.053Z,28.16
2022-07-25T19:36:57.588Z,28.00
2022-07-25T19:40:00.825Z,27.85
2022-07-25T19:43:03.935Z,27.72
2022-07-25T19:46:06.657Z,27.62
2022-07-25T19:49:11.526Z,27.63
2022-07-25T19:52:15.209Z,27.59
2022-07-25T19:55:18.385Z,27.53
2022-07-25T19:58:21.351Z,27.45
2022-07-25T20:01:26.720Z,27.41
2022-07-25T20:04:29.894Z,27.37
2022-07-25T20:07:32.676Z,27.27
2022-07-25T20:10:35.790Z,27.22
2022-07-25T20:13:38.472Z,27.15
2022-07-25T20:16:42.354Z,27.14
2022-07-25T20:19:45.522Z,27.16
2022-07-25T20:22:49.245Z,27.16
2022-07-25T20:25:52.252Z,27.11
2022-07-25T20:28:56.892Z,26.97
2022-07-25T20:31:59.570Z,26.96
2022-07-25T20:35:04.308Z,27.02
2022-07-25T20:38:09.099Z,27.08
2022-07-25T20:41:13.254Z,27.08
2022-07-25T20:44:16.397Z,27.00
2022-07-25T20:47:19.626Z,26.92
2022-07-25T20:50:22.484Z,26.85
2022-07-25T20:53:26.204Z,26.78
2022-07-25T20:56:28.848Z,26.73
2022-07-25T20:59:32.897Z,26.65
2022-07-25T21:02:35.770Z,26.52
2022-07-25T21:05:39.684Z,26.45
2022-07-25T21:08:42.692Z,26.39
2022-07-25T21:11:46.048Z,26.38
2022-07-25T21:14:49.129Z,26.31
2022-07-25T21:17:52.924Z,26.28
2022-07-25T21:20:56.562Z,26.22
2022-07-25T21:24:01.371Z,26.16
2022-07-25T21:27:04.575Z,26.18
2022-07-25T21:30:10.333Z,26.24
2022-07-25T21:33:14.751Z,26.26
2022-07-25T21:36:18.283Z,26.25
2022-07-25T21:39:21.332Z,26.19
2022-07-25T21:42:24.877Z,26.25
2022-07-25T21:45:28.305Z,26.28
2022-07-25T21:49:05.182Z,26.27
2022-07-25T21:52:08.142Z,26.23
2022-07-25T21:55:11.425Z,26.31
2022-07-25T21:58:14.146Z,26.28
2022-07-25T22:01:19.733Z,26.31
2022-07-25T22:04:22.738Z,26.30
2022-07-25T22:07:25.584Z,26.27
2022-07-25T22:10:28.771Z,26.32
2022-07-25T22:13:31.718Z,26.29
2022-07-25T22:16:35.561Z,26.24
2022-07-25T22:19:38.391Z,26.28
2022-07-25T22:22:42.090Z,26.23
2022-07-25T22:25:44.932Z,26.15
2022-07-25T22:28:48.890Z,26.13
2022-07-25T22:31:52.405Z,26.15
2022-07-25T22:34:55.713Z,26.04
2022-07-25T22:37:58.740Z,26.02
2022-07-25T22:41:01.773Z,25.96
2022-07-25T22:44:04.808Z,25.86
2022-07-25T22:47:08.074Z,25.87
2022-07-25T22:50:10.955Z,25.85
2022-07-25T22:53:14.015Z,25.79
2022-07-25T22:56:17.535Z,25.59
2022-07-25T22:59:20.710Z,25.74
2022-07-25T23:02:23.824Z,25.73
2022-07-25T23:05:27.066Z,25.58
2022-07-25T23:08:30.552Z,25.46
2022-07-25T23:11:33.856Z,25.47
2022-07-25T23:14:36.846Z,25.44
2022-07-25T23:17:40.232Z,25.41
2022-07-25T23:20:43.124Z,25.43
2022-07-25T23:23:46.355Z,25.32
2022-07-25T23:26:49.105Z,25.39
2022-07-25T23:29:54.337Z,25.39
2022-07-25T23:32:57.395Z,25.39
2022-07-25T23:36:01.080Z,25.39
2022-07-25T23:39:03.997Z,25.09
2022-07-25T23:42:07.703Z,25.28
2022-07-25T23:45:11.635Z,25.25
2022-07-25T23:48:15.203Z,25.20
2022-07-25T23:51:18.432Z,25.10
2022-07-25T23:54:21.883Z,25.00
2022-07-25T23:57:24.521Z,24.96
